Portada
METAR-TAF:

METAR-TAF

Aeroports :

Abakan, Rússia

latitud: 53-45N, longitud: 091-24E, altitud: 245 m

Observació

L'informe es va fer fa 30 minuts, a les 10:30 UTC
Vent 4 kt del Sud
Temperatura -7°C
Humitat 67%
Pressió 1033 hPa
Visibilitat: 4900 m
fum

METAR: UNAA 151030Z 17002MPS 4900 FU NSC M07/M12 Q1033 R20/820149 NOSIG RMK QFE752

Hora: 18:00 (11:00 UTC)

Pronòstic

L'informe es va fer fa 3 hores i 0 minuts, a les 08:00 UTC
Pronòstic vàlid del 15 a les 09 UTC al 16 a les 09 UTC
Vent 6 kt del Sud/Sud-Oest
Visibilitat: 3200 m
Núvols disperses a una alçada de 2000 ft, Cumulonimbus.
fum
Temporalment
l' 15 a les 10 UTC al 16 a les 04 UTC
Visibilitat: 1000 m
xàfecs de neu, fum

TAF: UNAA 150800Z 1509/1609 20003MPS 3200 FU SCT020CB TEMPO 1510/1604 1000 -SHSN FU

Observacions i pronòstics meteorològics de més de 4000 aeroports (METAR i TAF).

Les estacions disponibles són els punts grocs i vermells al mapa.

Posi el ratolí al punt desitjat per veure el nom de l'estació.

Feu clic per veure les observacions i els pronòstics meteorològics.

Per canviar el mapa: feu clic els botons verds amb una creu de color negre per apropar; al botó verd amb un guió per allunyar la imatge; o en les fletxes verdes per a mapes adjacents.


METAR-TAF: